Time;durP1;ratioP1;P1;durP2;ratioP2;P2;SDS_P1;SDS_P2;PMS_P1;PMS_P2;Temp;Humidity;BMP_temperature;BMP_pressure;BME280_temperature;BME280_humidity;BME280_pressure;Samples;Min_cycle;Max_cycle;Signal;HPM_P1;HPM_P2
2022/03/31 00:00:23;;;;;;;22.55;20.17;;;9.30;99.90;;;;;;5962658;24;20241;-89
2022/03/31 00:02:50;;;;;;;21.75;19.45;;;9.30;99.90;;;;;;5968139;24;20204;-89
2022/03/31 00:05:17;;;;;;;22.38;19.98;;;9.30;99.90;;;;;;5967785;24;20215;-86
2022/03/31 00:07:51;;;;;;;21.13;19.02;;;9.20;99.90;;;;;;5971821;24;20210;-83
2022/03/31 00:10:26;;;;;;;21.55;19.25;;;9.20;99.90;;;;;;5969013;24;20590;-88
2022/03/31 00:12:56;;;;;;;23.65;21.23;;;9.20;99.90;;;;;;5969263;24;20180;-87
2022/03/31 00:15:24;;;;;;;23.08;20.67;;;9.20;99.90;;;;;;5968212;24;20223;-88
2022/03/31 00:17:51;;;;;;;21.10;18.77;;;9.20;99.90;;;;;;5969149;24;20185;-87
2022/03/31 00:20:18;;;;;;;20.30;18.20;;;9.20;99.90;;;;;;5967066;24;20212;-84
2022/03/31 00:22:45;;;;;;;20.60;18.40;;;9.20;99.90;;;;;;5967270;24;20479;-87
2022/03/31 00:25:13;;;;;;;21.27;18.95;;;9.20;99.90;;;;;;5964978;24;20269;-81
2022/03/31 00:27:41;;;;;;;22.17;19.88;;;9.20;99.90;;;;;;5965260;24;20643;-82
2022/03/31 00:30:11;;;;;;;20.50;18.40;;;9.20;99.90;;;;;;5965142;24;20215;-84
2022/03/31 00:32:39;;;;;;;19.73;17.73;;;9.20;99.90;;;;;;5964851;24;20166;-81
2022/03/31 00:35:08;;;;;;;22.23;19.92;;;9.30;99.90;;;;;;5962921;24;20233;-86
2022/03/31 00:37:35;;;;;;;23.65;21.17;;;9.30;99.90;;;;;;5966494;24;20181;-82
2022/03/31 00:40:03;;;;;;;21.85;19.60;;;9.30;99.90;;;;;;5963213;24;20213;-86
2022/03/31 00:42:30;;;;;;;22.88;19.60;;;9.30;99.90;;;;;;5961239;24;20181;-82
2022/03/31 00:44:57;;;;;;;24.33;21.15;;;9.30;99.90;;;;;;5961677;24;20216;-82
2022/03/31 00:47:25;;;;;;;21.27;19.08;;;9.30;99.90;;;;;;5968442;24;20184;-85
2022/03/31 00:49:52;;;;;;;21.58;19.27;;;9.30;99.90;;;;;;5968765;24;20607;-86
2022/03/31 00:52:19;;;;;;;20.52;18.33;;;9.30;99.90;;;;;;5968371;24;20189;-83
2022/03/31 00:54:46;;;;;;;21.25;18.75;;;9.30;99.90;;;;;;5968991;24;20238;-84
2022/03/31 00:57:15;;;;;;;21.73;19.48;;;9.30;99.90;;;;;;5969579;24;20181;-86
2022/03/31 00:59:42;;;;;;;20.63;18.42;;;9.30;99.90;;;;;;5968300;24;20210;-85
2022/03/31 01:02:10;;;;;;;20.77;17.50;;;9.30;99.90;;;;;;5969373;24;20181;-87
2022/03/31 01:04:41;;;;;;;19.63;17.60;;;9.30;99.90;;;;;;5968027;24;20195;-83
2022/03/31 01:07:08;;;;;;;19.13;17.02;;;9.30;99.90;;;;;;5969357;24;20170;-84
2022/03/31 01:09:36;;;;;;;17.52;15.73;;;9.30;99.90;;;;;;5965302;24;20181;-84
2022/03/31 01:12:03;;;;;;;18.23;16.40;;;9.30;99.90;;;;;;5965797;24;20638;-87
2022/03/31 01:14:32;;;;;;;17.75;15.95;;;9.40;99.90;;;;;;5964632;24;20192;-88
2022/03/31 01:17:00;;;;;;;18.75;16.85;;;9.30;99.90;;;;;;5966332;24;20244;-87
2022/03/31 01:19:27;;;;;;;19.50;17.50;;;9.40;99.90;;;;;;5965025;24;20181;-82
2022/03/31 01:21:56;;;;;;;20.35;17.73;;;9.40;99.90;;;;;;5963927;24;20193;-83
2022/03/31 01:24:24;;;;;;;19.23;17.15;;;9.40;99.90;;;;;;5961173;24;20180;-88
2022/03/31 01:26:51;;;;;;;19.42;17.42;;;9.30;99.90;;;;;;5958606;24;20213;-83
2022/03/31 01:29:18;;;;;;;19.67;17.70;;;9.30;99.90;;;;;;5966522;24;20181;-80
2022/03/31 01:31:45;;;;;;;19.52;17.58;;;9.30;99.90;;;;;;5965098;24;20213;-80
2022/03/31 01:34:12;;;;;;;19.33;17.30;;;9.30;99.90;;;;;;5966295;24;20243;-82
2022/03/31 01:36:39;;;;;;;20.17;18.15;;;9.30;99.90;;;;;;5964897;24;20208;-84
2022/03/31 01:39:07;;;;;;;20.17;18.10;;;9.30;99.90;;;;;;5966041;24;20249;-82
2022/03/31 01:41:35;;;;;;;20.55;18.38;;;9.20;99.90;;;;;;5966065;24;20213;-81
2022/03/31 01:44:03;;;;;;;20.58;18.20;;;9.20;99.90;;;;;;5965419;24;20223;-83
2022/03/31 01:46:30;;;;;;;18.15;16.27;;;9.30;99.90;;;;;;5965187;24;20367;-82
2022/03/31 01:48:57;;;;;;;20.30;18.20;;;9.30;99.90;;;;;;5966624;24;20185;-82
2022/03/31 01:51:24;;;;;;;20.98;18.88;;;9.30;99.90;;;;;;5964704;24;20216;-85
2022/03/31 01:53:51;;;;;;;19.60;16.80;;;9.20;99.90;;;;;;5964242;24;20257;-80
2022/03/31 01:56:18;;;;;;;19.00;17.10;;;9.30;99.90;;;;;;5965454;24;20205;-84
2022/03/31 01:58:46;;;;;;;18.73;16.73;;;9.20;99.90;;;;;;5964492;24;20177;-82
2022/03/31 02:01:13;;;;;;;17.58;15.88;;;9.20;99.90;;;;;;5962644;24;20208;-81
2022/03/31 02:03:41;;;;;;;20.10;17.98;;;9.20;99.90;;;;;;5962218;24;20257;-81
2022/03/31 02:06:08;;;;;;;18.80;16.80;;;9.20;99.90;;;;;;5961710;24;20589;-79
2022/03/31 02:08:35;;;;;;;19.05;17.15;;;9.20;99.90;;;;;;5959621;24;20181;-80
2022/03/31 02:11:03;;;;;;;18.50;16.60;;;9.20;99.90;;;;;;5953167;24;20257;-82
2022/03/31 02:13:30;;;;;;;19.42;17.38;;;9.20;99.90;;;;;;5963108;24;20196;-80
2022/03/31 02:15:58;;;;;;;17.77;16.02;;;9.20;99.90;;;;;;5963575;24;20213;-81
2022/03/31 02:18:26;;;;;;;17.45;15.70;;;9.20;99.90;;;;;;5966422;24;20212;-85
2022/03/31 02:20:53;;;;;;;18.70;16.80;;;9.20;99.90;;;;;;5966114;24;20209;-82
2022/03/31 02:23:20;;;;;;;17.80;15.93;;;9.20;99.90;;;;;;5965436;24;20177;-82
2022/03/31 02:25:47;;;;;;;19.38;17.48;;;9.20;99.90;;;;;;5961898;24;20281;-82
2022/03/31 02:28:14;;;;;;;18.25;16.30;;;9.20;99.90;;;;;;5964103;24;20185;-81
2022/03/31 02:30:42;;;;;;;20.05;17.45;;;9.20;99.90;;;;;;5962418;24;20216;-81
2022/03/31 02:33:10;;;;;;;18.60;16.70;;;9.20;99.90;;;;;;5964427;24;20268;-80
2022/03/31 02:35:37;;;;;;;18.45;16.55;;;9.20;99.90;;;;;;5960953;24;20208;-80
2022/03/31 02:38:05;;;;;;;18.08;16.27;;;9.20;99.90;;;;;;5961938;24;20185;-79
2022/03/31 02:40:32;;;;;;;19.10;17.13;;;9.20;99.90;;;;;;5962369;24;20669;-80
2022/03/31 02:42:59;;;;;;;19.20;17.20;;;9.20;99.90;;;;;;5962966;24;20185;-80
2022/03/31 02:45:26;;;;;;;18.52;16.63;;;9.20;99.90;;;;;;5959837;24;20234;-80
2022/03/31 02:47:53;;;;;;;17.80;16.00;;;9.20;99.90;;;;;;5959089;24;20241;-83
2022/03/31 02:50:21;;;;;;;16.77;15.07;;;9.20;99.90;;;;;;5955329;24;20232;-81
2022/03/31 02:55:33;;;;;;;17.65;15.85;;;9.20;99.90;;;;;;5961888;24;20711;-80
2022/03/31 02:58:01;;;;;;;17.90;16.10;;;9.20;99.90;;;;;;5987732;24;20177;-82
2022/03/31 03:00:30;;;;;;;17.80;16.00;;;9.20;99.90;;;;;;5965675;24;20237;-82
2022/03/31 03:02:58;;;;;;;16.67;14.98;;;9.20;99.90;;;;;;5966443;24;20181;-84
2022/03/31 03:05:27;;;;;;;17.85;16.08;;;9.20;99.90;;;;;;5965192;24;20212;-84
2022/03/31 03:07:54;;;;;;;17.90;15.80;;;9.20;99.90;;;;;;5966337;24;20181;-83
2022/03/31 03:10:21;;;;;;;18.67;16.77;;;9.20;99.90;;;;;;5966021;24;20215;-82
2022/03/31 03:12:49;;;;;;;18.88;16.90;;;9.20;99.90;;;;;;5965023;24;20188;-84
2022/03/31 03:15:17;;;;;;;20.20;18.10;;;9.20;99.90;;;;;;5964259;24;20205;-83
2022/03/31 03:17:47;;;;;;;19.60;17.60;;;9.20;99.90;;;;;;5964358;24;20286;-82
2022/03/31 03:20:16;;;;;;;19.58;17.58;;;9.20;99.90;;;;;;5967943;24;20181;-88
2022/03/31 03:22:46;;;;;;;23.45;20.95;;;9.20;99.90;;;;;;5966575;24;20174;-88
2022/03/31 03:25:15;;;;;;;26.02;23.33;;;9.10;99.90;;;;;;5963179;24;20274;-90
2022/03/31 03:27:43;;;;;;;28.10;25.13;;;9.00;99.90;;;;;;5964935;24;20504;-88
2022/03/31 03:30:11;;;;;;;29.33;26.33;;;9.00;99.90;;;;;;5963885;24;20189;-90
2022/03/31 03:32:40;;;;;;;29.33;25.05;;;8.80;99.90;;;;;;5962033;24;20209;-86
2022/03/31 03:35:09;;;;;;;30.20;26.98;;;8.80;99.90;;;;;;5959626;24;20182;-89
2022/03/31 03:37:36;;;;;;;28.58;25.52;;;8.80;99.90;;;;;;5958865;24;20187;-85
2022/03/31 03:40:08;;;;;;;28.80;25.67;;;8.70;99.90;;;;;;5968049;24;20196;-84
2022/03/31 03:42:38;;;;;;;27.50;24.50;;;8.70;99.90;;;;;;5966080;24;20207;-85
2022/03/31 03:45:06;;;;;;;28.25;23.90;;;8.70;99.90;;;;;;5966926;24;20212;-89
2022/03/31 03:47:33;;;;;;;29.65;26.35;;;8.70;99.90;;;;;;5967000;24;20201;-88
2022/03/31 03:50:00;;;;;;;26.95;24.05;;;8.70;99.90;;;;;;5967569;24;20191;-88
2022/03/31 03:52:27;;;;;;;28.65;25.65;;;8.70;99.90;;;;;;5969002;24;20228;-87
2022/03/31 03:54:55;;;;;;;26.48;23.77;;;8.70;99.90;;;;;;5967276;24;20181;-87
2022/03/31 03:57:23;;;;;;;30.10;26.90;;;8.70;99.90;;;;;;5965552;24;20224;-86
2022/03/31 03:59:50;;;;;;;27.65;24.75;;;8.70;99.90;;;;;;5965350;24;20191;-85
2022/03/31 04:02:17;;;;;;;28.48;25.48;;;8.70;99.90;;;;;;5967336;24;20213;-85
2022/03/31 04:04:44;;;;;;;28.65;25.65;;;8.70;99.90;;;;;;5966394;24;20192;-85
2022/03/31 04:07:12;;;;;;;30.35;27.15;;;8.70;99.90;;;;;;5966022;24;20209;-81
2022/03/31 04:09:39;;;;;;;28.45;25.23;;;8.70;99.90;;;;;;5965324;24;20218;-81
2022/03/31 04:12:06;;;;;;;28.63;25.33;;;8.70;99.90;;;;;;5961835;24;20213;-84
2022/03/31 04:14:35;;;;;;;31.85;27.67;;;8.70;99.90;;;;;;5961534;24;20181;-83
2022/03/31 04:17:02;;;;;;;28.85;25.73;;;8.70;99.90;;;;;;5959902;24;20205;-81
2022/03/31 04:19:29;;;;;;;30.27;27.10;;;8.70;99.90;;;;;;5958968;24;20212;-81
2022/03/31 04:21:56;;;;;;;30.67;27.40;;;8.70;99.90;;;;;;5962965;24;20261;-82
2022/03/31 04:24:23;;;;;;;30.13;25.67;;;8.70;99.90;;;;;;5963222;24;20181;-84
2022/03/31 04:26:50;;;;;;;28.35;25.38;;;8.70;99.90;;;;;;5962417;24;20212;-81
2022/03/31 04:29:17;;;;;;;29.13;25.98;;;8.70;99.90;;;;;;5964276;24;20184;-82
2022/03/31 04:31:46;;;;;;;26.73;24.00;;;8.70;99.90;;;;;;5963226;24;20208;-81
2022/03/31 04:34:15;;;;;;;26.02;23.27;;;8.70;99.90;;;;;;5962741;24;20546;-85
2022/03/31 04:36:43;;;;;;;26.65;23.85;;;8.70;99.90;;;;;;5962594;24;20201;-82
2022/03/31 04:39:13;;;;;;;26.90;22.90;;;8.70;99.90;;;;;;5963900;24;20245;-80
2022/03/31 04:41:40;;;;;;;25.05;22.45;;;8.70;99.90;;;;;;5962880;24;20217;-87
2022/03/31 04:44:08;;;;;;;25.88;23.27;;;8.70;99.90;;;;;;5965843;24;20661;-86
2022/03/31 04:46:35;;;;;;;25.13;22.50;;;8.70;99.90;;;;;;5964027;24;20229;-81
2022/03/31 04:49:05;;;;;;;24.50;21.90;;;8.70;99.90;;;;;;5961900;24;20181;-80
2022/03/31 04:51:32;;;;;;;25.35;22.63;;;8.70;99.90;;;;;;5960087;24;20547;-81
2022/03/31 04:53:59;;;;;;;25.40;22.52;;;8.70;99.90;;;;;;5960945;24;20810;-84
2022/03/31 04:56:26;;;;;;;25.35;22.33;;;8.70;99.90;;;;;;5960701;24;20196;-80
2022/03/31 04:58:53;;;;;;;26.85;22.23;;;8.70;99.90;;;;;;5957426;24;20185;-80
2022/03/31 05:01:22;;;;;;;25.70;22.77;;;8.70;99.90;;;;;;5956184;24;20262;-81
2022/03/31 05:03:49;;;;;;;26.13;23.52;;;8.70;99.90;;;;;;5957098;24;20307;-85
2022/03/31 05:06:18;;;;;;;25.45;22.83;;;8.70;99.90;;;;;;5967224;24;20257;-87
2022/03/31 05:08:45;;;;;;;27.45;24.42;;;8.70;99.90;;;;;;5967166;24;20181;-90
2022/03/31 05:11:12;;;;;;;27.67;24.77;;;8.70;99.90;;;;;;5965941;24;20269;-87
2022/03/31 05:13:39;;;;;;;25.73;23.02;;;8.60;99.90;;;;;;5966787;24;20181;-88
2022/03/31 05:16:07;;;;;;;25.70;22.48;;;8.60;99.90;;;;;;5968513;24;20603;-82
2022/03/31 05:18:34;;;;;;;24.15;21.65;;;8.60;99.90;;;;;;5969111;24;20181;-83
2022/03/31 05:21:01;;;;;;;25.13;22.38;;;8.60;99.90;;;;;;5967881;24;20204;-88
2022/03/31 05:23:30;;;;;;;22.52;20.00;;;8.60;99.90;;;;;;5968524;24;20177;-90
2022/03/31 05:25:57;;;;;;;23.92;21.42;;;8.60;99.90;;;;;;5967548;24;20211;-87
2022/03/31 05:28:24;;;;;;;23.42;20.88;;;8.60;99.90;;;;;;5969084;24;20177;-86
2022/03/31 05:30:51;;;;;;;22.10;19.80;;;8.70;99.90;;;;;;5966600;24;20209;-88
2022/03/31 05:33:19;;;;;;;23.00;20.67;;;8.70;99.90;;;;;;5967532;24;20180;-87
2022/03/31 05:35:46;;;;;;;21.55;19.25;;;8.70;99.90;;;;;;5964273;24;20547;-88
2022/03/31 05:38:13;;;;;;;22.33;19.80;;;8.70;99.90;;;;;;5964970;24;20237;-89
2022/03/31 05:40:44;;;;;;;22.95;20.55;;;8.70;99.90;;;;;;5963139;24;20249;-88
2022/03/31 05:43:11;;;;;;;21.90;19.42;;;8.80;99.90;;;;;;5959568;24;20208;-85
2022/03/31 05:45:38;;;;;;;23.95;21.33;;;8.70;99.90;;;;;;5956334;24;20185;-84
2022/03/31 05:48:05;;;;;;;26.02;22.77;;;8.70;99.90;;;;;;5965388;24;20208;-82
2022/03/31 05:50:32;;;;;;;25.63;22.67;;;8.70;99.90;;;;;;5965890;24;20271;-81
2022/03/31 05:52:59;;;;;;;23.73;21.23;;;8.70;99.90;;;;;;5993109;24;20192;-86
2022/03/31 05:55:26;;;;;;;24.60;22.00;;;8.70;99.90;;;;;;5992462;24;20180;-87
2022/03/31 05:57:55;;;;;;;24.02;21.50;;;8.70;99.90;;;;;;5992587;24;20412;-82
2022/03/31 06:00:23;;;;;;;26.83;23.92;;;8.60;99.90;;;;;;5992785;24;20188;-83
2022/03/31 06:02:50;;;;;;;26.17;23.40;;;8.60;99.90;;;;;;5991795;24;20521;-83
2022/03/31 06:05:19;;;;;;;29.67;25.65;;;8.60;99.90;;;;;;5991174;24;20194;-83
2022/03/31 06:07:46;;;;;;;26.15;23.40;;;8.60;99.90;;;;;;5992534;24;20233;-87
2022/03/31 06:10:13;;;;;;;28.08;23.85;;;8.60;99.90;;;;;;5994673;24;20244;-87
2022/03/31 06:12:40;;;;;;;26.77;23.88;;;8.60;99.90;;;;;;5991544;24;20269;-85
2022/03/31 06:15:09;;;;;;;28.83;24.35;;;8.60;99.90;;;;;;5993838;24;20180;-89
2022/03/31 06:17:40;;;;;;;37.72;30.10;;;8.50;99.90;;;;;;5990772;24;20203;-84
2022/03/31 06:20:09;;;;;;;29.77;26.30;;;8.50;99.90;;;;;;5989462;24;20180;-81
2022/03/31 06:22:36;;;;;;;30.88;26.92;;;8.50;99.90;;;;;;5984350;24;20453;-83
2022/03/31 06:25:04;;;;;;;28.63;25.60;;;8.50;99.90;;;;;;5983166;24;20184;-82
2022/03/31 06:27:31;;;;;;;31.20;27.80;;;8.50;99.90;;;;;;5981344;24;20208;-85
2022/03/31 06:29:58;;;;;;;31.23;27.85;;;8.50;99.90;;;;;;5987123;24;20213;-83
2022/03/31 06:32:27;;;;;;;28.80;25.77;;;8.50;99.90;;;;;;5985613;24;20208;-87
2022/03/31 06:34:54;;;;;;;27.80;24.95;;;8.50;99.90;;;;;;5988688;24;20184;-83
2022/03/31 06:37:21;;;;;;;27.33;24.60;;;8.60;99.90;;;;;;5989588;24;20583;-83
2022/03/31 06:39:48;;;;;;;27.73;24.02;;;8.60;99.90;;;;;;5989424;24;20184;-82
2022/03/31 06:42:15;;;;;;;26.77;23.98;;;8.70;99.90;;;;;;5986109;23;20267;-81
2022/03/31 06:44:42;;;;;;;32.13;28.55;;;8.80;99.90;;;;;;5984358;24;20183;-81
2022/03/31 06:47:09;;;;;;;31.40;27.17;;;8.80;99.90;;;;;;5982982;24;20294;-81
2022/03/31 06:49:37;;;;;;;28.48;25.48;;;8.80;99.90;;;;;;5982465;24;20203;-83
2022/03/31 06:52:05;;;;;;;32.60;28.55;;;8.90;99.90;;;;;;5987306;24;20211;-79
2022/03/31 06:54:32;;;;;;;29.42;26.33;;;8.90;99.90;;;;;;5983254;24;20183;-79
2022/03/31 06:56:59;;;;;;;27.25;24.42;;;9.00;99.90;;;;;;5983186;24;20952;-84
2022/03/31 06:59:29;;;;;;;28.38;25.08;;;9.10;99.90;;;;;;5983684;24;20209;-81
2022/03/31 07:01:56;;;;;;;28.13;25.23;;;9.20;99.90;;;;;;5983252;24;20216;-82
2022/03/31 07:04:23;;;;;;;27.98;25.02;;;9.20;99.90;;;;;;5982665;24;20195;-81
2022/03/31 07:06:51;;;;;;;28.52;25.42;;;9.30;99.90;;;;;;5981870;24;20682;-80
2022/03/31 07:09:18;;;;;;;30.63;27.48;;;9.40;99.90;;;;;;5980034;24;20645;-80
2022/03/31 07:11:45;;;;;;;29.08;26.10;;;9.50;99.90;;;;;;5981111;24;20208;-82
2022/03/31 07:14:12;;;;;;;29.63;26.55;;;9.70;99.90;;;;;;5987696;24;20184;-81
2022/03/31 07:16:39;;;;;;;31.92;28.48;;;9.80;99.90;;;;;;5987825;24;20211;-80
2022/03/31 07:19:07;;;;;;;32.58;29.08;;;9.80;99.90;;;;;;5987721;24;20180;-82
2022/03/31 07:21:34;;;;;;;31.98;28.55;;;9.80;99.90;;;;;;5986039;24;20208;-82
2022/03/31 07:24:02;;;;;;;34.35;30.65;;;9.80;99.90;;;;;;5987065;24;20209;-83
2022/03/31 07:26:31;;;;;;;33.38;29.90;;;9.80;99.90;;;;;;5987806;24;20806;-81
2022/03/31 07:28:58;;;;;;;37.97;33.88;;;9.70;99.90;;;;;;5988545;24;20509;-81
2022/03/31 07:31:28;;;;;;;34.25;30.60;;;9.70;99.90;;;;;;5987799;24;20207;-83
2022/03/31 07:33:55;;;;;;;36.80;32.80;;;9.70;99.90;;;;;;5985262;24;20190;-79
2022/03/31 07:36:22;;;;;;;34.72;31.08;;;9.80;99.90;;;;;;5989094;24;20208;-82
2022/03/31 07:38:49;;;;;;;34.60;31.02;;;10.00;99.90;;;;;;5986717;24;20184;-80
2022/03/31 07:41:17;;;;;;;38.95;32.50;;;10.10;99.90;;;;;;5987882;24;20184;-79
2022/03/31 07:43:44;;;;;;;36.00;32.20;;;10.10;99.90;;;;;;5986864;24;20184;-80
2022/03/31 07:46:12;;;;;;;34.63;30.90;;;10.20;99.90;;;;;;5984866;24;20191;-78
2022/03/31 07:48:39;;;;;;;36.83;32.60;;;10.30;99.90;;;;;;5985276;24;20818;-79
2022/03/31 07:51:08;;;;;;;33.63;30.08;;;10.40;99.90;;;;;;5982650;24;20184;-78
2022/03/31 07:53:35;;;;;;;34.85;31.23;;;10.50;99.90;;;;;;5981545;24;20183;-78
2022/03/31 07:56:04;;;;;;;37.38;32.33;;;10.70;99.90;;;;;;5989977;24;20200;-81
2022/03/31 07:58:32;;;;;;;32.65;29.25;;;10.90;99.90;;;;;;5989176;24;20192;-78
2022/03/31 08:01:00;;;;;;;34.80;30.85;;;11.00;99.90;;;;;;5991617;24;20672;-82
2022/03/31 08:03:27;;;;;;;34.33;30.63;;;11.10;99.90;;;;;;5990161;24;20212;-79
2022/03/31 08:05:54;;;;;;;35.90;32.13;;;11.10;99.90;;;;;;5990281;24;20610;-78
2022/03/31 08:08:22;;;;;;;37.25;33.28;;;11.20;99.90;;;;;;5987966;24;20216;-80
2022/03/31 08:10:50;;;;;;;36.63;32.83;;;11.20;99.90;;;;;;5989642;24;20185;-79
2022/03/31 08:13:24;;;;;;;35.25;31.40;;;11.10;99.90;;;;;;5989637;24;20212;-80
2022/03/31 08:15:54;;;;;;;37.30;33.38;;;11.10;99.90;;;;;;5988266;24;20174;-78
2022/03/31 08:18:23;;;;;;;35.50;31.83;;;11.10;99.90;;;;;;5988713;24;20227;-80
2022/03/31 08:20:50;;;;;;;35.15;31.42;;;11.10;99.90;;;;;;5987737;24;20195;-80
2022/03/31 08:23:17;;;;;;;37.10;32.55;;;11.20;99.90;;;;;;5988525;24;20260;-86
2022/03/31 08:25:44;;;;;;;37.17;33.33;;;11.30;99.90;;;;;;5992558;24;20285;-79
2022/03/31 08:28:12;;;;;;;36.97;33.13;;;11.50;99.90;;;;;;5988886;24;20606;-80
2022/03/31 08:30:39;;;;;;;34.50;31.05;;;11.60;99.90;;;;;;5986765;24;20237;-80
2022/03/31 08:33:07;;;;;;;33.95;30.48;;;11.70;99.90;;;;;;5984663;24;20725;-80
2022/03/31 08:35:34;;;;;;;38.67;34.55;;;11.80;99.90;;;;;;5980837;24;20191;-80
2022/03/31 08:38:01;;;;;;;33.00;29.70;;;11.80;99.90;;;;;;5988994;24;20204;-82
2022/03/31 08:40:28;;;;;;;31.92;28.52;;;11.70;99.90;;;;;;5991219;24;20694;-80
2022/03/31 08:42:56;;;;;;;35.15;30.90;;;11.60;99.90;;;;;;5989933;23;20250;-79
2022/03/31 08:45:23;;;;;;;33.47;30.17;;;11.60;99.90;;;;;;5985268;24;20510;-79
2022/03/31 08:47:53;;;;;;;38.00;34.03;;;11.50;99.90;;;;;;5988007;24;20215;-81
2022/03/31 08:50:23;;;;;;;33.88;30.45;;;11.40;99.90;;;;;;5987667;24;20164;-78
2022/03/31 08:52:50;;;;;;;34.33;30.67;;;11.40;99.90;;;;;;5987319;24;20216;-79
2022/03/31 08:55:19;;;;;;;33.28;29.88;;;11.50;99.90;;;;;;5987615;24;20787;-79
2022/03/31 08:57:48;;;;;;;37.22;33.35;;;11.50;99.90;;;;;;5986316;24;20200;-81
2022/03/31 09:00:17;;;;;;;37.20;33.33;;;11.60;99.90;;;;;;5986148;24;20204;-79
2022/03/31 09:02:57;;;;;;;39.28;34.97;;;11.50;99.90;;;;;;5986490;24;20273;-79
2022/03/31 09:05:27;;;;;;;41.55;37.30;;;11.40;99.90;;;;;;5984077;24;20221;-78
2022/03/31 09:07:55;;;;;;;38.47;34.33;;;11.50;99.90;;;;;;5988523;24;20208;-78
2022/03/31 09:10:30;;;;;;;42.25;32.92;;;11.50;99.90;;;;;;5984507;24;20180;-79
2022/03/31 09:12:58;;;;;;;35.80;32.05;;;11.60;99.90;;;;;;5982668;24;20286;-78
2022/03/31 09:15:25;;;;;;;40.88;36.55;;;11.80;99.90;;;;;;5979048;24;20185;-78
2022/03/31 09:17:57;;;;;;;38.28;34.45;;;12.00;99.90;;;;;;5978814;24;20210;-78
2022/03/31 09:20:24;;;;;;;38.40;34.40;;;12.10;99.90;;;;;;5979065;24;20593;-79
2022/03/31 09:22:52;;;;;;;35.95;32.28;;;12.10;99.90;;;;;;5981092;24;20237;-78
2022/03/31 09:25:27;;;;;;;38.40;34.33;;;12.20;99.90;;;;;;5979800;24;20180;-78
2022/03/31 09:27:55;;;;;;;38.97;34.70;;;12.20;99.90;;;;;;5981013;24;20211;-78
2022/03/31 09:30:24;;;;;;;35.45;31.77;;;12.20;99.90;;;;;;5982701;24;20209;-79
2022/03/31 09:32:52;;;;;;;36.85;33.00;;;12.20;99.90;;;;;;5982614;24;20323;-80
2022/03/31 09:35:21;;;;;;;37.45;33.55;;;12.20;99.90;;;;;;5982355;24;20210;-79
2022/03/31 09:37:49;;;;;;;42.33;36.67;;;12.30;99.90;;;;;;5981826;24;20723;-80
2022/03/31 09:40:19;;;;;;;39.75;35.53;;;12.30;99.90;;;;;;5983517;24;20180;-78
2022/03/31 09:43:00;;;;;;;34.75;31.08;;;12.30;99.90;;;;;;5980722;23;20220;-78
2022/03/31 09:45:38;;;;;;;36.08;32.42;;;12.40;99.90;;;;;;5980413;23;20200;-79
2022/03/31 09:48:08;;;;;;;33.17;29.85;;;12.50;99.90;;;;;;5979522;24;20296;-79
2022/03/31 09:50:36;;;;;;;30.13;27.02;;;12.70;99.90;;;;;;5977951;24;20191;-78
2022/03/31 09:53:05;;;;;;;32.88;29.58;;;13.00;99.90;;;;;;5977226;24;20216;-78
2022/03/31 09:55:34;;;;;;;32.20;28.90;;;13.20;99.90;;;;;;5974686;24;20243;-78
2022/03/31 09:58:02;;;;;;;31.17;27.98;;;13.40;99.90;;;;;;5978175;24;20208;-78
2022/03/31 10:00:30;;;;;;;29.20;26.10;;;13.40;99.90;;;;;;5977713;23;20212;-78
2022/03/31 10:02:59;;;;;;;28.40;25.60;;;13.60;99.90;;;;;;5976334;24;20609;-78
2022/03/31 10:05:27;;;;;;;31.48;28.38;;;13.80;99.90;;;;;;5975581;23;20173;-78
2022/03/31 10:07:56;;;;;;;29.30;26.25;;;13.90;99.90;;;;;;5971198;23;20212;-78
2022/03/31 10:10:24;;;;;;;29.33;26.42;;;13.90;99.90;;;;;;5977182;24;20237;-78
2022/03/31 10:12:58;;;;;;;30.65;27.52;;;14.00;99.90;;;;;;5975619;23;20208;-78
2022/03/31 10:15:31;;;;;;;27.95;25.05;;;13.90;99.90;;;;;;5975203;24;20173;-78
2022/03/31 10:17:58;;;;;;;30.40;27.10;;;14.00;99.90;;;;;;5975624;24;20275;-78
2022/03/31 10:20:25;;;;;;;33.03;28.10;;;14.20;99.90;;;;;;5976161;24;20602;-78
2022/03/31 10:25:44;;;;;;;31.35;28.13;;;14.20;99.90;;;;;;5976533;24;20620;-78
2022/03/31 10:28:15;;;;;;;32.85;29.52;;;14.20;99.90;;;;;;5975507;24;20256;-78
2022/03/31 10:30:54;;;;;;;31.27;28.15;;;14.20;99.90;;;;;;5976602;24;20207;-79
2022/03/31 10:33:30;;;;;;;29.95;26.95;;;14.10;99.90;;;;;;5975931;24;20204;-78
2022/03/31 10:36:12;;;;;;;30.20;26.98;;;14.10;99.90;;;;;;5976035;24;20554;-79
2022/03/31 10:38:40;;;;;;;29.73;26.70;;;14.10;99.90;;;;;;5975450;24;20208;-79
2022/03/31 10:41:11;;;;;;;31.38;28.05;;;14.20;99.90;;;;;;5977218;24;20180;-79
2022/03/31 10:43:47;;;;;;;29.40;26.38;;;14.10;99.90;;;;;;5973685;24;20215;-78
2022/03/31 10:46:16;;;;;;;28.30;25.48;;;14.00;99.90;;;;;;5976808;24;20251;-79
2022/03/31 10:48:53;;;;;;;30.15;27.08;;;14.00;99.90;;;;;;5981576;24;20311;-79
2022/03/31 10:51:30;;;;;;;28.88;25.92;;;14.00;99.90;;;;;;5978669;24;20160;-79
2022/03/31 10:53:57;;;;;;;27.40;24.45;;;14.00;99.90;;;;;;5974566;24;20272;-79
2022/03/31 10:56:26;;;;;;;26.13;23.40;;;14.00;99.90;;;;;;5976264;24;20559;-79
2022/03/31 10:58:56;;;;;;;28.25;25.45;;;13.90;99.90;;;;;;5976893;24;20204;-79
2022/03/31 11:01:24;;;;;;;28.80;25.83;;;13.90;99.90;;;;;;5978235;24;20181;-79
2022/03/31 11:03:52;;;;;;;25.58;22.92;;;13.90;99.90;;;;;;5977493;24;20579;-79
2022/03/31 11:06:20;;;;;;;29.17;25.98;;;14.00;99.90;;;;;;5976942;24;20660;-78
2022/03/31 11:08:50;;;;;;;30.20;27.17;;;13.90;99.90;;;;;;5978265;24;20208;-79
2022/03/31 11:11:21;;;;;;;28.38;25.58;;;13.80;99.90;;;;;;5978073;24;20208;-79
2022/03/31 11:13:49;;;;;;;28.48;25.58;;;13.60;99.90;;;;;;5977221;23;20514;-79
2022/03/31 11:16:18;;;;;;;29.00;26.20;;;13.60;99.90;;;;;;5978269;24;20240;-79
2022/03/31 11:18:54;;;;;;;29.60;26.63;;;13.60;99.90;;;;;;5975685;24;20204;-79
2022/03/31 11:21:22;;;;;;;28.33;25.63;;;13.60;99.90;;;;;;5978759;24;20195;-79
2022/03/31 11:23:50;;;;;;;25.38;22.75;;;13.50;99.90;;;;;;5977551;24;20272;-79
2022/03/31 11:26:25;;;;;;;24.67;22.25;;;13.50;99.90;;;;;;5979113;24;20264;-79
2022/03/31 11:28:52;;;;;;;23.63;21.27;;;13.50;99.90;;;;;;5976926;24;20240;-79
2022/03/31 11:31:21;;;;;;;26.75;23.95;;;13.60;99.90;;;;;;5979337;24;20185;-79
2022/03/31 11:33:49;;;;;;;23.85;21.58;;;13.60;99.90;;;;;;5977022;24;20287;-79
2022/03/31 11:36:17;;;;;;;25.88;23.17;;;13.70;99.90;;;;;;5976916;24;20664;-78
2022/03/31 11:38:54;;;;;;;24.70;22.30;;;13.80;99.90;;;;;;5976450;24;20204;-79
2022/03/31 11:41:21;;;;;;;21.80;19.70;;;13.90;99.90;;;;;;5977125;23;20231;-78
2022/03/31 11:43:48;;;;;;;22.30;20.00;;;14.00;99.90;;;;;;5976150;24;20216;-78
2022/03/31 11:46:16;;;;;;;25.52;22.90;;;14.00;99.90;;;;;;5978245;24;20184;-77
2022/03/31 11:48:46;;;;;;;23.23;20.88;;;14.00;99.90;;;;;;5977160;24;20680;-78
2022/03/31 11:51:15;;;;;;;23.30;20.90;;;14.00;99.90;;;;;;5977411;24;20183;-79
2022/03/31 11:53:45;;;;;;;23.20;20.58;;;14.00;99.90;;;;;;5976574;24;20272;-78
2022/03/31 11:56:18;;;;;;;21.65;19.38;;;14.10;99.90;;;;;;5978472;24;20183;-78
2022/03/31 11:58:47;;;;;;;20.75;18.58;;;14.10;99.90;;;;;;5977816;24;20204;-78
2022/03/31 12:01:15;;;;;;;23.90;21.50;;;14.10;99.90;;;;;;5978442;24;20203;-78
2022/03/31 12:03:44;;;;;;;24.48;21.98;;;14.10;99.90;;;;;;5974966;24;20216;-78
2022/03/31 12:06:13;;;;;;;23.13;20.42;;;13.90;99.90;;;;;;5978714;24;20180;-78
2022/03/31 12:08:41;;;;;;;22.48;20.15;;;13.70;99.90;;;;;;5976606;24;20212;-78
2022/03/31 12:11:09;;;;;;;22.80;20.60;;;13.60;99.90;;;;;;5976597;24;20195;-77
2022/03/31 12:13:48;;;;;;;20.67;18.52;;;13.50;99.90;;;;;;5975277;24;20208;-77
2022/03/31 12:16:15;;;;;;;21.25;19.20;;;13.60;99.90;;;;;;5977355;24;20164;-77
2022/03/31 12:18:44;;;;;;;20.58;18.40;;;13.70;99.90;;;;;;5976314;24;20211;-78
2022/03/31 12:21:12;;;;;;;20.23;18.25;;;13.70;99.90;;;;;;5977210;24;20232;-78
2022/03/31 12:23:43;;;;;;;22.73;20.63;;;13.70;99.90;;;;;;5975177;24;20568;-77
2022/03/31 12:26:13;;;;;;;20.52;18.52;;;13.70;99.90;;;;;;5977344;24;20176;-77
2022/03/31 12:28:44;;;;;;;21.73;19.73;;;13.70;99.90;;;;;;5979692;24;20212;-78
2022/03/31 12:31:22;;;;;;;22.67;20.38;;;13.60;99.90;;;;;;5980112;24;20188;-78
2022/03/31 12:33:53;;;;;;;22.90;20.48;;;13.60;99.90;;;;;;5976687;24;20216;-78
2022/03/31 12:36:25;;;;;;;22.10;19.88;;;13.70;99.90;;;;;;5977111;24;20216;-77
2022/03/31 12:38:54;;;;;;;21.08;18.90;;;13.80;99.90;;;;;;5976383;24;20272;-78
2022/03/31 12:41:23;;;;;;;19.90;17.92;;;13.90;99.90;;;;;;5977400;24;20177;-78
2022/03/31 12:44:02;;;;;;;20.40;17.90;;;14.00;99.90;;;;;;5975254;24;20223;-78